sensor_id;sensor_type;location;lat;lon;timestamp;P1;durP1;ratioP1;P2;durP2;ratioP2
4732;SDS011;2380;53.668;10.008;2024-03-08T00:02:19;32.43;;;12.77;;
4732;SDS011;2380;53.668;10.008;2024-03-08T00:04:48;32.57;;;12.63;;
4732;SDS011;2380;53.668;10.008;2024-03-08T00:07:18;33.53;;;13.23;;
4732;SDS011;2380;53.668;10.008;2024-03-08T00:09:50;31.00;;;13.50;;
4732;SDS011;2380;53.668;10.008;2024-03-08T00:12:19;35.90;;;13.30;;
4732;SDS011;2380;53.668;10.008;2024-03-08T00:14:49;35.67;;;12.30;;
4732;SDS011;2380;53.668;10.008;2024-03-08T00:17:19;29.23;;;13.00;;
4732;SDS011;2380;53.668;10.008;2024-03-08T00:19:49;32.67;;;12.97;;
4732;SDS011;2380;53.668;10.008;2024-03-08T00:22:19;38.92;;;14.20;;
4732;SDS011;2380;53.668;10.008;2024-03-08T00:24:51;26.83;;;12.60;;
4732;SDS011;2380;53.668;10.008;2024-03-08T00:27:20;30.30;;;13.32;;
4732;SDS011;2380;53.668;10.008;2024-03-08T00:29:50;34.37;;;12.50;;
4732;SDS011;2380;53.668;10.008;2024-03-08T00:32:19;30.10;;;13.07;;
4732;SDS011;2380;53.668;10.008;2024-03-08T00:34:50;33.03;;;12.93;;
4732;SDS011;2380;53.668;10.008;2024-03-08T00:37:21;32.08;;;12.50;;
4732;SDS011;2380;53.668;10.008;2024-03-08T00:39:53;29.35;;;13.48;;
4732;SDS011;2380;53.668;10.008;2024-03-08T00:42:23;27.50;;;12.73;;
4732;SDS011;2380;53.668;10.008;2024-03-08T00:44:52;37.03;;;12.95;;
4732;SDS011;2380;53.668;10.008;2024-03-08T00:47:22;37.40;;;14.32;;
4732;SDS011;2380;53.668;10.008;2024-03-08T00:49:51;36.20;;;14.55;;
4732;SDS011;2380;53.668;10.008;2024-03-08T00:52:23;34.63;;;13.40;;
4732;SDS011;2380;53.668;10.008;2024-03-08T00:54:55;30.25;;;12.90;;
4732;SDS011;2380;53.668;10.008;2024-03-08T00:57:25;35.00;;;12.87;;
4732;SDS011;2380;53.668;10.008;2024-03-08T00:59:54;36.08;;;14.68;;
4732;SDS011;2380;53.668;10.008;2024-03-08T01:02:24;40.20;;;14.45;;
4732;SDS011;2380;53.668;10.008;2024-03-08T01:04:53;28.73;;;12.57;;
4732;SDS011;2380;53.668;10.008;2024-03-08T01:07:23;34.28;;;13.45;;
4732;SDS011;2380;53.668;10.008;2024-03-08T01:09:52;31.38;;;13.05;;
4732;SDS011;2380;53.668;10.008;2024-03-08T01:12:24;32.20;;;12.73;;
4732;SDS011;2380;53.668;10.008;2024-03-08T01:14:54;38.40;;;13.85;;
4732;SDS011;2380;53.668;10.008;2024-03-08T01:17:24;30.08;;;12.95;;
4732;SDS011;2380;53.668;10.008;2024-03-08T01:19:54;32.53;;;13.73;;
4732;SDS011;2380;53.668;10.008;2024-03-08T01:22:24;29.58;;;12.57;;
4732;SDS011;2380;53.668;10.008;2024-03-08T01:24:55;35.95;;;13.27;;
4732;SDS011;2380;53.668;10.008;2024-03-08T01:27:27;27.40;;;11.88;;
4732;SDS011;2380;53.668;10.008;2024-03-08T01:29:56;32.05;;;12.30;;
4732;SDS011;2380;53.668;10.008;2024-03-08T01:32:26;30.05;;;13.05;;
4732;SDS011;2380;53.668;10.008;2024-03-08T01:34:56;35.13;;;13.77;;
4732;SDS011;2380;53.668;10.008;2024-03-08T01:37:25;28.63;;;12.90;;
4732;SDS011;2380;53.668;10.008;2024-03-08T01:39:55;36.90;;;15.18;;
4732;SDS011;2380;53.668;10.008;2024-03-08T01:42:28;33.55;;;13.65;;
4732;SDS011;2380;53.668;10.008;2024-03-08T01:44:57;29.08;;;12.68;;
4732;SDS011;2380;53.668;10.008;2024-03-08T01:47:27;38.20;;;14.65;;
4732;SDS011;2380;53.668;10.008;2024-03-08T01:49:59;46.75;;;13.95;;
4732;SDS011;2380;53.668;10.008;2024-03-08T01:52:29;39.80;;;14.02;;
4732;SDS011;2380;53.668;10.008;2024-03-08T01:54:59;34.88;;;11.85;;
4732;SDS011;2380;53.668;10.008;2024-03-08T01:57:33;34.67;;;14.20;;
4732;SDS011;2380;53.668;10.008;2024-03-08T02:00:05;33.17;;;13.38;;
4732;SDS011;2380;53.668;10.008;2024-03-08T02:02:37;31.23;;;13.27;;
4732;SDS011;2380;53.668;10.008;2024-03-08T02:05:07;33.95;;;14.15;;
4732;SDS011;2380;53.668;10.008;2024-03-08T02:07:36;35.63;;;13.43;;
4732;SDS011;2380;53.668;10.008;2024-03-08T02:10:06;33.33;;;13.65;;
4732;SDS011;2380;53.668;10.008;2024-03-08T02:12:38;32.45;;;12.45;;
4732;SDS011;2380;53.668;10.008;2024-03-08T02:15:08;30.23;;;12.85;;
4732;SDS011;2380;53.668;10.008;2024-03-08T02:17:37;31.40;;;13.38;;
4732;SDS011;2380;53.668;10.008;2024-03-08T02:20:07;34.78;;;13.23;;
4732;SDS011;2380;53.668;10.008;2024-03-08T02:22:42;35.85;;;13.27;;
4732;SDS011;2380;53.668;10.008;2024-03-08T02:25:12;43.22;;;15.20;;
4732;SDS011;2380;53.668;10.008;2024-03-08T02:27:42;31.52;;;13.85;;
4732;SDS011;2380;53.668;10.008;2024-03-08T02:30:11;32.08;;;13.38;;
4732;SDS011;2380;53.668;10.008;2024-03-08T02:32:44;36.08;;;14.73;;
4732;SDS011;2380;53.668;10.008;2024-03-08T02:35:13;37.47;;;13.40;;
4732;SDS011;2380;53.668;10.008;2024-03-08T02:37:45;37.88;;;13.90;;
4732;SDS011;2380;53.668;10.008;2024-03-08T02:40:15;31.27;;;12.68;;
4732;SDS011;2380;53.668;10.008;2024-03-08T02:42:44;39.00;;;14.40;;
4732;SDS011;2380;53.668;10.008;2024-03-08T02:45:14;36.47;;;14.82;;
4732;SDS011;2380;53.668;10.008;2024-03-08T02:47:43;37.65;;;14.45;;
4732;SDS011;2380;53.668;10.008;2024-03-08T02:50:13;39.78;;;14.25;;
4732;SDS011;2380;53.668;10.008;2024-03-08T02:52:45;34.45;;;14.27;;
4732;SDS011;2380;53.668;10.008;2024-03-08T02:55:15;37.95;;;14.60;;
4732;SDS011;2380;53.668;10.008;2024-03-08T02:57:45;38.00;;;14.27;;
4732;SDS011;2380;53.668;10.008;2024-03-08T03:00:14;36.90;;;13.60;;
4732;SDS011;2380;53.668;10.008;2024-03-08T03:02:45;42.30;;;14.05;;
4732;SDS011;2380;53.668;10.008;2024-03-08T03:05:15;35.08;;;13.18;;
4732;SDS011;2380;53.668;10.008;2024-03-08T03:07:47;39.00;;;14.88;;
4732;SDS011;2380;53.668;10.008;2024-03-08T03:10:17;34.20;;;14.02;;
4732;SDS011;2380;53.668;10.008;2024-03-08T03:12:48;30.85;;;12.45;;
4732;SDS011;2380;53.668;10.008;2024-03-08T03:15:17;36.80;;;13.77;;
4732;SDS011;2380;53.668;10.008;2024-03-08T03:17:47;36.80;;;13.95;;
4732;SDS011;2380;53.668;10.008;2024-03-08T03:20:18;33.40;;;13.13;;
4732;SDS011;2380;53.668;10.008;2024-03-08T03:22:56;41.70;;;13.43;;
4732;SDS011;2380;53.668;10.008;2024-03-08T03:25:27;31.65;;;13.07;;
4732;SDS011;2380;53.668;10.008;2024-03-08T03:28:01;58.33;;;18.02;;
4732;SDS011;2380;53.668;10.008;2024-03-08T03:30:31;42.92;;;14.27;;
4732;SDS011;2380;53.668;10.008;2024-03-08T03:33:02;38.35;;;14.48;;
4732;SDS011;2380;53.668;10.008;2024-03-08T03:35:34;36.08;;;13.70;;
4732;SDS011;2380;53.668;10.008;2024-03-08T03:38:07;42.10;;;12.27;;
4732;SDS011;2380;53.668;10.008;2024-03-08T03:40:37;34.22;;;12.82;;
4732;SDS011;2380;53.668;10.008;2024-03-08T03:43:05;39.65;;;14.57;;
4732;SDS011;2380;53.668;10.008;2024-03-08T03:45:36;40.60;;;14.20;;
4732;SDS011;2380;53.668;10.008;2024-03-08T03:48:08;37.88;;;13.60;;
4732;SDS011;2380;53.668;10.008;2024-03-08T03:50:38;42.95;;;16.05;;
4732;SDS011;2380;53.668;10.008;2024-03-08T03:53:10;37.13;;;14.02;;
4732;SDS011;2380;53.668;10.008;2024-03-08T03:55:39;37.63;;;14.73;;
4732;SDS011;2380;53.668;10.008;2024-03-08T03:58:09;39.65;;;15.27;;
4732;SDS011;2380;53.668;10.008;2024-03-08T04:00:38;46.97;;;15.43;;
4732;SDS011;2380;53.668;10.008;2024-03-08T04:03:08;36.55;;;14.27;;
4732;SDS011;2380;53.668;10.008;2024-03-08T04:05:38;40.42;;;14.60;;
4732;SDS011;2380;53.668;10.008;2024-03-08T04:08:11;38.33;;;14.02;;
4732;SDS011;2380;53.668;10.008;2024-03-08T04:10:40;40.38;;;14.20;;
4732;SDS011;2380;53.668;10.008;2024-03-08T04:13:10;35.58;;;14.60;;
4732;SDS011;2380;53.668;10.008;2024-03-08T04:15:39;43.42;;;15.23;;
4732;SDS011;2380;53.668;10.008;2024-03-08T04:18:15;35.80;;;13.52;;
4732;SDS011;2380;53.668;10.008;2024-03-08T04:20:44;36.83;;;13.63;;
4732;SDS011;2380;53.668;10.008;2024-03-08T04:23:17;37.88;;;14.60;;
4732;SDS011;2380;53.668;10.008;2024-03-08T04:25:46;35.78;;;14.18;;
4732;SDS011;2380;53.668;10.008;2024-03-08T04:28:16;37.63;;;13.52;;
4732;SDS011;2380;53.668;10.008;2024-03-08T04:30:45;38.40;;;15.00;;
4732;SDS011;2380;53.668;10.008;2024-03-08T04:33:15;37.67;;;12.63;;
4732;SDS011;2380;53.668;10.008;2024-03-08T04:35:45;33.28;;;13.18;;
4732;SDS011;2380;53.668;10.008;2024-03-08T04:38:17;36.35;;;12.40;;
4732;SDS011;2380;53.668;10.008;2024-03-08T04:40:47;34.10;;;13.25;;
4732;SDS011;2380;53.668;10.008;2024-03-08T04:43:16;41.25;;;13.82;;
4732;SDS011;2380;53.668;10.008;2024-03-08T04:45:47;30.48;;;14.63;;
4732;SDS011;2380;53.668;10.008;2024-03-08T04:48:16;43.08;;;15.98;;
4732;SDS011;2380;53.668;10.008;2024-03-08T04:50:47;35.42;;;14.82;;
4732;SDS011;2380;53.668;10.008;2024-03-08T04:53:19;43.13;;;15.32;;
4732;SDS011;2380;53.668;10.008;2024-03-08T04:55:48;38.45;;;14.90;;
4732;SDS011;2380;53.668;10.008;2024-03-08T04:58:18;39.58;;;14.90;;
4732;SDS011;2380;53.668;10.008;2024-03-08T05:00:47;46.70;;;15.40;;
4732;SDS011;2380;53.668;10.008;2024-03-08T05:03:17;40.15;;;15.32;;
4732;SDS011;2380;53.668;10.008;2024-03-08T05:05:47;40.28;;;14.48;;
4732;SDS011;2380;53.668;10.008;2024-03-08T05:08:19;46.63;;;15.25;;
4732;SDS011;2380;53.668;10.008;2024-03-08T05:10:49;35.50;;;13.50;;
4732;SDS011;2380;53.668;10.008;2024-03-08T05:13:18;39.72;;;15.20;;
4732;SDS011;2380;53.668;10.008;2024-03-08T05:15:48;42.40;;;14.27;;
4732;SDS011;2380;53.668;10.008;2024-03-08T05:18:17;42.40;;;14.82;;
4732;SDS011;2380;53.668;10.008;2024-03-08T05:20:48;40.40;;;15.07;;
4732;SDS011;2380;53.668;10.008;2024-03-08T05:23:20;46.22;;;13.90;;
4732;SDS011;2380;53.668;10.008;2024-03-08T05:25:50;40.65;;;13.73;;
4732;SDS011;2380;53.668;10.008;2024-03-08T05:28:20;49.40;;;14.98;;
4732;SDS011;2380;53.668;10.008;2024-03-08T05:30:49;48.83;;;15.45;;
4732;SDS011;2380;53.668;10.008;2024-03-08T05:33:19;47.00;;;15.30;;
4732;SDS011;2380;53.668;10.008;2024-03-08T05:35:46;38.50;;;14.43;;
4732;SDS011;2380;53.668;10.008;2024-03-08T05:38:15;43.63;;;15.75;;
4732;SDS011;2380;53.668;10.008;2024-03-08T05:40:49;42.90;;;16.30;;
4732;SDS011;2380;53.668;10.008;2024-03-08T05:43:18;44.45;;;15.00;;
4732;SDS011;2380;53.668;10.008;2024-03-08T05:45:48;43.90;;;16.95;;
4732;SDS011;2380;53.668;10.008;2024-03-08T05:48:17;38.90;;;14.02;;
4732;SDS011;2380;53.668;10.008;2024-03-08T05:50:47;55.47;;;17.48;;
4732;SDS011;2380;53.668;10.008;2024-03-08T05:53:17;46.50;;;16.15;;
4732;SDS011;2380;53.668;10.008;2024-03-08T05:55:49;40.28;;;14.10;;
4732;SDS011;2380;53.668;10.008;2024-03-08T05:58:18;36.70;;;15.02;;
4732;SDS011;2380;53.668;10.008;2024-03-08T06:00:48;47.22;;;15.75;;
4732;SDS011;2380;53.668;10.008;2024-03-08T06:03:19;43.85;;;16.15;;
4732;SDS011;2380;53.668;10.008;2024-03-08T06:05:48;43.47;;;16.38;;
4732;SDS011;2380;53.668;10.008;2024-03-08T06:08:18;41.67;;;15.25;;
4732;SDS011;2380;53.668;10.008;2024-03-08T06:10:50;140.43;;;38.75;;
4732;SDS011;2380;53.668;10.008;2024-03-08T06:13:20;125.82;;;37.10;;
4732;SDS011;2380;53.668;10.008;2024-03-08T06:15:52;92.13;;;26.48;;
4732;SDS011;2380;53.668;10.008;2024-03-08T06:18:22;59.10;;;19.80;;
4732;SDS011;2380;53.668;10.008;2024-03-08T06:20:51;58.00;;;21.05;;
4732;SDS011;2380;53.668;10.008;2024-03-08T06:23:22;55.90;;;18.25;;
4732;SDS011;2380;53.668;10.008;2024-03-08T06:25:56;54.10;;;20.23;;
4732;SDS011;2380;53.668;10.008;2024-03-08T06:28:26;56.45;;;19.80;;
4732;SDS011;2380;53.668;10.008;2024-03-08T06:30:55;55.60;;;17.65;;
4732;SDS011;2380;53.668;10.008;2024-03-08T06:33:25;50.78;;;18.05;;
4732;SDS011;2380;53.668;10.008;2024-03-08T06:35:55;53.50;;;17.75;;
4732;SDS011;2380;53.668;10.008;2024-03-08T06:38:25;46.70;;;16.55;;
4732;SDS011;2380;53.668;10.008;2024-03-08T06:40:57;47.28;;;16.67;;
4732;SDS011;2380;53.668;10.008;2024-03-08T06:43:29;50.05;;;18.33;;
4732;SDS011;2380;53.668;10.008;2024-03-08T06:46:00;51.00;;;18.02;;
4732;SDS011;2380;53.668;10.008;2024-03-08T06:48:30;48.22;;;17.95;;
4732;SDS011;2380;53.668;10.008;2024-03-08T06:51:00;51.38;;;18.90;;
4732;SDS011;2380;53.668;10.008;2024-03-08T06:53:29;48.25;;;17.60;;
4732;SDS011;2380;53.668;10.008;2024-03-08T06:56:01;48.83;;;19.50;;
4732;SDS011;2380;53.668;10.008;2024-03-08T06:58:31;45.13;;;18.58;;
4732;SDS011;2380;53.668;10.008;2024-03-08T07:01:00;49.45;;;17.00;;
4732;SDS011;2380;53.668;10.008;2024-03-08T07:03:31;51.92;;;18.95;;
4732;SDS011;2380;53.668;10.008;2024-03-08T07:06:00;45.63;;;17.85;;
4732;SDS011;2380;53.668;10.008;2024-03-08T07:08:34;52.55;;;20.38;;
4732;SDS011;2380;53.668;10.008;2024-03-08T07:11:06;49.15;;;18.42;;
4732;SDS011;2380;53.668;10.008;2024-03-08T07:13:35;57.47;;;19.15;;
4732;SDS011;2380;53.668;10.008;2024-03-08T07:16:05;55.45;;;18.92;;
4732;SDS011;2380;53.668;10.008;2024-03-08T07:18:35;46.90;;;17.75;;
4732;SDS011;2380;53.668;10.008;2024-03-08T07:21:06;47.65;;;17.05;;
4732;SDS011;2380;53.668;10.008;2024-03-08T07:23:36;63.72;;;20.30;;
4732;SDS011;2380;53.668;10.008;2024-03-08T07:26:27;63.58;;;20.83;;
4732;SDS011;2380;53.668;10.008;2024-03-08T07:28:57;54.53;;;18.73;;
4732;SDS011;2380;53.668;10.008;2024-03-08T07:31:27;46.85;;;16.98;;
4732;SDS011;2380;53.668;10.008;2024-03-08T07:34:11;56.10;;;18.73;;
4732;SDS011;2380;53.668;10.008;2024-03-08T07:36:40;51.33;;;18.25;;
4732;SDS011;2380;53.668;10.008;2024-03-08T07:39:09;51.45;;;18.55;;
4732;SDS011;2380;53.668;10.008;2024-03-08T07:41:43;51.90;;;19.23;;
4732;SDS011;2380;53.668;10.008;2024-03-08T07:44:12;57.60;;;23.97;;
4732;SDS011;2380;53.668;10.008;2024-03-08T07:46:41;94.50;;;38.57;;
4732;SDS011;2380;53.668;10.008;2024-03-08T07:49:11;77.60;;;31.37;;
4732;SDS011;2380;53.668;10.008;2024-03-08T07:51:41;74.00;;;27.73;;
4732;SDS011;2380;53.668;10.008;2024-03-08T07:54:10;67.23;;;24.73;;
4732;SDS011;2380;53.668;10.008;2024-03-08T07:56:43;49.50;;;20.73;;
4732;SDS011;2380;53.668;10.008;2024-03-08T07:59:12;52.07;;;22.70;;
4732;SDS011;2380;53.668;10.008;2024-03-08T08:01:41;42.63;;;18.70;;
4732;SDS011;2380;53.668;10.008;2024-03-08T08:04:11;40.80;;;17.57;;
4732;SDS011;2380;53.668;10.008;2024-03-08T08:06:41;35.37;;;15.23;;
4732;SDS011;2380;53.668;10.008;2024-03-08T08:09:10;47.57;;;17.80;;
4732;SDS011;2380;53.668;10.008;2024-03-08T08:11:43;39.77;;;16.60;;
4732;SDS011;2380;53.668;10.008;2024-03-08T08:14:13;34.83;;;15.67;;
4732;SDS011;2380;53.668;10.008;2024-03-08T08:16:42;39.83;;;16.63;;
4732;SDS011;2380;53.668;10.008;2024-03-08T08:19:12;37.20;;;16.80;;
4732;SDS011;2380;53.668;10.008;2024-03-08T08:21:42;40.60;;;15.93;;
4732;SDS011;2380;53.668;10.008;2024-03-08T08:24:12;40.77;;;15.80;;
4732;SDS011;2380;53.668;10.008;2024-03-08T08:26:44;41.17;;;17.63;;
4732;SDS011;2380;53.668;10.008;2024-03-08T08:29:13;40.83;;;16.77;;
4732;SDS011;2380;53.668;10.008;2024-03-08T08:31:43;39.90;;;16.97;;
4732;SDS011;2380;53.668;10.008;2024-03-08T08:34:13;38.60;;;15.00;;
4732;SDS011;2380;53.668;10.008;2024-03-08T08:36:43;36.50;;;14.73;;
4732;SDS011;2380;53.668;10.008;2024-03-08T08:39:12;39.50;;;16.03;;
4732;SDS011;2380;53.668;10.008;2024-03-08T08:41:46;45.13;;;17.57;;
4732;SDS011;2380;53.668;10.008;2024-03-08T08:44:15;37.20;;;16.43;;
4732;SDS011;2380;53.668;10.008;2024-03-08T08:46:45;39.63;;;17.37;;
4732;SDS011;2380;53.668;10.008;2024-03-08T08:49:15;38.00;;;15.63;;
4732;SDS011;2380;53.668;10.008;2024-03-08T08:51:50;39.77;;;16.43;;
4732;SDS011;2380;53.668;10.008;2024-03-08T08:54:24;39.30;;;16.43;;
4732;SDS011;2380;53.668;10.008;2024-03-08T08:56:56;36.20;;;15.87;;
4732;SDS011;2380;53.668;10.008;2024-03-08T08:59:26;36.27;;;16.07;;
4732;SDS011;2380;53.668;10.008;2024-03-08T09:01:55;43.30;;;15.93;;
4732;SDS011;2380;53.668;10.008;2024-03-08T09:04:25;38.37;;;15.93;;
4732;SDS011;2380;53.668;10.008;2024-03-08T09:06:55;36.37;;;16.60;;
4732;SDS011;2380;53.668;10.008;2024-03-08T09:09:25;39.53;;;16.33;;
4732;SDS011;2380;53.668;10.008;2024-03-08T09:11:58;32.57;;;14.90;;
4732;SDS011;2380;53.668;10.008;2024-03-08T09:14:28;33.60;;;15.23;;
4732;SDS011;2380;53.668;10.008;2024-03-08T09:16:57;39.10;;;16.53;;
4732;SDS011;2380;53.668;10.008;2024-03-08T09:19:27;34.43;;;15.53;;
4732;SDS011;2380;53.668;10.008;2024-03-08T09:21:56;34.57;;;15.27;;
4732;SDS011;2380;53.668;10.008;2024-03-08T09:24:26;34.73;;;14.83;;
4732;SDS011;2380;53.668;10.008;2024-03-08T09:26:55;40.90;;;17.60;;
4732;SDS011;2380;53.668;10.008;2024-03-08T09:29:27;32.57;;;15.30;;
4732;SDS011;2380;53.668;10.008;2024-03-08T09:31:57;37.60;;;15.07;;
4732;SDS011;2380;53.668;10.008;2024-03-08T09:34:27;32.50;;;15.50;;
4732;SDS011;2380;53.668;10.008;2024-03-08T09:37:03;36.80;;;15.80;;
4732;SDS011;2380;53.668;10.008;2024-03-08T09:39:35;50.83;;;19.80;;
4732;SDS011;2380;53.668;10.008;2024-03-08T09:42:05;37.50;;;16.37;;
4732;SDS011;2380;53.668;10.008;2024-03-08T09:44:37;35.43;;;15.77;;
4732;SDS011;2380;53.668;10.008;2024-03-08T09:47:07;31.90;;;15.20;;
4732;SDS011;2380;53.668;10.008;2024-03-08T09:49:40;40.70;;;15.47;;
4732;SDS011;2380;53.668;10.008;2024-03-08T09:52:10;28.67;;;12.97;;
4732;SDS011;2380;53.668;10.008;2024-03-08T09:54:39;34.80;;;14.53;;
4732;SDS011;2380;53.668;10.008;2024-03-08T09:57:10;31.63;;;13.57;;
4732;SDS011;2380;53.668;10.008;2024-03-08T09:59:45;32.00;;;13.30;;
4732;SDS011;2380;53.668;10.008;2024-03-08T10:02:17;35.43;;;15.40;;
4732;SDS011;2380;53.668;10.008;2024-03-08T10:04:48;31.00;;;14.37;;
4732;SDS011;2380;53.668;10.008;2024-03-08T10:07:20;34.70;;;13.90;;
4732;SDS011;2380;53.668;10.008;2024-03-08T10:09:51;35.73;;;14.20;;
4732;SDS011;2380;53.668;10.008;2024-03-08T10:12:21;33.07;;;15.13;;
4732;SDS011;2380;53.668;10.008;2024-03-08T10:14:53;30.47;;;13.87;;
4732;SDS011;2380;53.668;10.008;2024-03-08T10:17:24;30.83;;;14.00;;
4732;SDS011;2380;53.668;10.008;2024-03-08T10:19:54;34.17;;;14.47;;
4732;SDS011;2380;53.668;10.008;2024-03-08T10:22:25;34.03;;;14.43;;
4732;SDS011;2380;53.668;10.008;2024-03-08T10:24:56;31.83;;;14.10;;
4732;SDS011;2380;53.668;10.008;2024-03-08T10:27:22;30.20;;;13.17;;
4732;SDS011;2380;53.668;10.008;2024-03-08T10:29:55;33.93;;;14.23;;
4732;SDS011;2380;53.668;10.008;2024-03-08T10:32:28;31.67;;;14.00;;
4732;SDS011;2380;53.668;10.008;2024-03-08T10:34:57;29.63;;;13.80;;
4732;SDS011;2380;53.668;10.008;2024-03-08T10:37:27;29.67;;;13.67;;
4732;SDS011;2380;53.668;10.008;2024-03-08T10:40:02;35.37;;;14.53;;
4732;SDS011;2380;53.668;10.008;2024-03-08T10:42:39;28.53;;;13.47;;
4732;SDS011;2380;53.668;10.008;2024-03-08T10:45:14;32.83;;;14.67;;
4732;SDS011;2380;53.668;10.008;2024-03-08T10:47:44;32.77;;;14.03;;
4732;SDS011;2380;53.668;10.008;2024-03-08T10:50:17;26.77;;;13.43;;
4732;SDS011;2380;53.668;10.008;2024-03-08T10:52:48;35.50;;;13.40;;
4732;SDS011;2380;53.668;10.008;2024-03-08T10:55:18;31.00;;;12.83;;
4732;SDS011;2380;53.668;10.008;2024-03-08T10:57:48;30.27;;;12.97;;
4732;SDS011;2380;53.668;10.008;2024-03-08T11:00:20;28.97;;;12.50;;
4732;SDS011;2380;53.668;10.008;2024-03-08T11:02:53;28.70;;;12.63;;
4732;SDS011;2380;53.668;10.008;2024-03-08T11:05:32;28.10;;;12.67;;
4732;SDS011;2380;53.668;10.008;2024-03-08T11:08:16;31.33;;;13.50;;
4732;SDS011;2380;53.668;10.008;2024-03-08T11:10:47;27.23;;;12.87;;
4732;SDS011;2380;53.668;10.008;2024-03-08T11:16:09;25.63;;;11.53;;
4732;SDS011;2380;53.668;10.008;2024-03-08T11:18:39;30.93;;;14.67;;
4732;SDS011;2380;53.668;10.008;2024-03-08T11:21:08;36.40;;;15.50;;
4732;SDS011;2380;53.668;10.008;2024-03-08T11:23:40;40.17;;;17.73;;
4732;SDS011;2380;53.668;10.008;2024-03-08T11:26:19;24.73;;;11.60;;
4732;SDS011;2380;53.668;10.008;2024-03-08T11:28:49;28.50;;;13.40;;
4732;SDS011;2380;53.668;10.008;2024-03-08T11:31:25;26.43;;;12.47;;
4732;SDS011;2380;53.668;10.008;2024-03-08T11:33:55;28.33;;;13.07;;
4732;SDS011;2380;53.668;10.008;2024-03-08T11:36:26;23.23;;;12.43;;
4732;SDS011;2380;53.668;10.008;2024-03-08T11:38:57;45.60;;;16.63;;
4732;SDS011;2380;53.668;10.008;2024-03-08T11:41:35;29.27;;;12.10;;
4732;SDS011;2380;53.668;10.008;2024-03-08T11:44:05;28.60;;;12.50;;
4732;SDS011;2380;53.668;10.008;2024-03-08T11:46:39;30.07;;;13.40;;
4732;SDS011;2380;53.668;10.008;2024-03-08T11:49:14;32.20;;;14.40;;
4732;SDS011;2380;53.668;10.008;2024-03-08T11:51:43;28.50;;;12.50;;
4732;SDS011;2380;53.668;10.008;2024-03-08T11:54:13;26.47;;;12.17;;
4732;SDS011;2380;53.668;10.008;2024-03-08T11:56:43;26.10;;;11.20;;
4732;SDS011;2380;53.668;10.008;2024-03-08T11:59:13;26.30;;;12.93;;
4732;SDS011;2380;53.668;10.008;2024-03-08T12:01:47;27.20;;;11.67;;
4732;SDS011;2380;53.668;10.008;2024-03-08T12:04:25;23.47;;;10.10;;
4732;SDS011;2380;53.668;10.008;2024-03-08T12:06:55;22.80;;;11.50;;
4732;SDS011;2380;53.668;10.008;2024-03-08T12:09:24;24.00;;;11.90;;
4732;SDS011;2380;53.668;10.008;2024-03-08T12:11:53;30.30;;;12.77;;
4732;SDS011;2380;53.668;10.008;2024-03-08T12:14:23;26.73;;;10.50;;
4732;SDS011;2380;53.668;10.008;2024-03-08T12:16:55;22.50;;;10.17;;
4732;SDS011;2380;53.668;10.008;2024-03-08T12:19:25;24.37;;;10.50;;
4732;SDS011;2380;53.668;10.008;2024-03-08T12:21:54;22.30;;;10.73;;
4732;SDS011;2380;53.668;10.008;2024-03-08T12:24:23;21.93;;;11.23;;
4732;SDS011;2380;53.668;10.008;2024-03-08T12:26:53;25.80;;;12.57;;
4732;SDS011;2380;53.668;10.008;2024-03-08T12:29:24;21.53;;;11.97;;
4732;SDS011;2380;53.668;10.008;2024-03-08T12:31:57;32.97;;;13.47;;
4732;SDS011;2380;53.668;10.008;2024-03-08T12:34:28;36.63;;;17.70;;
4732;SDS011;2380;53.668;10.008;2024-03-08T12:36:58;22.07;;;12.60;;
4732;SDS011;2380;53.668;10.008;2024-03-08T12:39:29;30.03;;;15.37;;
4732;SDS011;2380;53.668;10.008;2024-03-08T12:42:02;26.00;;;13.90;;
4732;SDS011;2380;53.668;10.008;2024-03-08T12:44:32;21.33;;;12.70;;
4732;SDS011;2380;53.668;10.008;2024-03-08T12:47:05;24.40;;;14.33;;
4732;SDS011;2380;53.668;10.008;2024-03-08T12:49:35;22.57;;;12.10;;
4732;SDS011;2380;53.668;10.008;2024-03-08T12:52:08;24.10;;;12.13;;
4732;SDS011;2380;53.668;10.008;2024-03-08T12:54:38;19.77;;;12.17;;
4732;SDS011;2380;53.668;10.008;2024-03-08T12:57:09;19.07;;;11.00;;
4732;SDS011;2380;53.668;10.008;2024-03-08T12:59:38;23.13;;;13.10;;
4732;SDS011;2380;53.668;10.008;2024-03-08T13:02:11;24.00;;;13.50;;
4732;SDS011;2380;53.668;10.008;2024-03-08T13:04:43;25.67;;;14.37;;
4732;SDS011;2380;53.668;10.008;2024-03-08T13:07:13;23.10;;;12.77;;
4732;SDS011;2380;53.668;10.008;2024-03-08T13:09:43;24.53;;;13.57;;
4732;SDS011;2380;53.668;10.008;2024-03-08T13:12:13;18.67;;;11.40;;
4732;SDS011;2380;53.668;10.008;2024-03-08T13:14:42;21.33;;;12.53;;
4732;SDS011;2380;53.668;10.008;2024-03-08T13:17:14;22.60;;;12.73;;
4732;SDS011;2380;53.668;10.008;2024-03-08T13:19:44;24.77;;;12.87;;
4732;SDS011;2380;53.668;10.008;2024-03-08T13:22:14;23.00;;;12.70;;
4732;SDS011;2380;53.668;10.008;2024-03-08T13:24:44;21.13;;;12.60;;
4732;SDS011;2380;53.668;10.008;2024-03-08T13:27:19;18.97;;;11.83;;
4732;SDS011;2380;53.668;10.008;2024-03-08T13:29:51;20.47;;;11.70;;
4732;SDS011;2380;53.668;10.008;2024-03-08T13:32:23;23.47;;;13.70;;
4732;SDS011;2380;53.668;10.008;2024-03-08T13:34:53;19.93;;;11.97;;
4732;SDS011;2380;53.668;10.008;2024-03-08T13:37:22;19.60;;;11.70;;
4732;SDS011;2380;53.668;10.008;2024-03-08T13:39:52;22.50;;;12.93;;
4732;SDS011;2380;53.668;10.008;2024-03-08T13:42:22;21.27;;;12.87;;
4732;SDS011;2380;53.668;10.008;2024-03-08T13:44:51;18.23;;;11.53;;
4732;SDS011;2380;53.668;10.008;2024-03-08T13:47:20;22.97;;;12.27;;
4732;SDS011;2380;53.668;10.008;2024-03-08T13:49:53;19.20;;;11.30;;
4732;SDS011;2380;53.668;10.008;2024-03-08T13:52:23;19.50;;;11.90;;
4732;SDS011;2380;53.668;10.008;2024-03-08T13:54:55;20.33;;;11.20;;
4732;SDS011;2380;53.668;10.008;2024-03-08T13:57:25;20.10;;;11.93;;
4732;SDS011;2380;53.668;10.008;2024-03-08T13:59:54;21.37;;;12.70;;
4732;SDS011;2380;53.668;10.008;2024-03-08T14:02:24;20.30;;;12.17;;
4732;SDS011;2380;53.668;10.008;2024-03-08T14:04:57;25.97;;;12.40;;
4732;SDS011;2380;53.668;10.008;2024-03-08T14:07:28;21.87;;;11.93;;
4732;SDS011;2380;53.668;10.008;2024-03-08T14:10:00;19.67;;;12.37;;
4732;SDS011;2380;53.668;10.008;2024-03-08T14:12:29;20.10;;;11.53;;
4732;SDS011;2380;53.668;10.008;2024-03-08T14:14:59;20.83;;;11.97;;
4732;SDS011;2380;53.668;10.008;2024-03-08T14:17:30;18.83;;;11.70;;
4732;SDS011;2380;53.668;10.008;2024-03-08T14:20:02;21.50;;;12.83;;
4732;SDS011;2380;53.668;10.008;2024-03-08T14:22:32;32.53;;;14.93;;
4732;SDS011;2380;53.668;10.008;2024-03-08T14:25:01;19.27;;;12.27;;
4732;SDS011;2380;53.668;10.008;2024-03-08T14:27:31;21.20;;;13.13;;
4732;SDS011;2380;53.668;10.008;2024-03-08T14:30:01;26.53;;;13.33;;
4732;SDS011;2380;53.668;10.008;2024-03-08T14:32:30;22.13;;;12.60;;
4732;SDS011;2380;53.668;10.008;2024-03-08T14:35:02;26.90;;;13.67;;
4732;SDS011;2380;53.668;10.008;2024-03-08T14:37:32;22.23;;;12.33;;
4732;SDS011;2380;53.668;10.008;2024-03-08T14:40:01;19.17;;;12.07;;
4732;SDS011;2380;53.668;10.008;2024-03-08T14:42:31;25.57;;;11.70;;
4732;SDS011;2380;53.668;10.008;2024-03-08T14:45:01;18.97;;;11.03;;
4732;SDS011;2380;53.668;10.008;2024-03-08T14:47:30;27.33;;;12.60;;
4732;SDS011;2380;53.668;10.008;2024-03-08T14:50:04;22.40;;;12.90;;
4732;SDS011;2380;53.668;10.008;2024-03-08T14:52:34;22.70;;;12.57;;
4732;SDS011;2380;53.668;10.008;2024-03-08T14:55:06;21.37;;;11.97;;
4732;SDS011;2380;53.668;10.008;2024-03-08T14:57:40;19.90;;;11.47;;